首页
METAR-TAF:

METAR-TAF

机场 :

Sachs Harbour, 西北特區, 加拿大

纬度: 72-00N, 经度: 125-17W, 海拔: 86米

当前天气观测

该预报发布于16小时和27分钟前的00:00 UTC
风速9节,风向东南
温度 -21°C
湿度 84%
气压 1025 hPa
能見度: 24.1公里
少量云层高于12000英尺

METAR: CYSY 130000Z 13009KT 15SM FEW120 M21/M23 A3028 RMK AC1 10 / SNW CVR / TRACE LOOSE / LAST STFD OBS/NEXT 131400Z SLP269

时间: 09:27 (16:27 UTC)

预报

该预报发布于21小时和49分钟前的18:38 UTC
预报有效从12日的 19点(UTC)到 12日的 24点(UTC)
风速5节,风向南转南东
能見度: 10公里
少量云层高于5000英尺
成为
从 12日的 22点(UTC)到 12日的 24点(UTC)
风速10节,风向

TAF: CYSY 121838Z 1219/1224 15005KT P6SM FEW050 BECMG 1222/1224 10010KT RMK NXT FCST WILL BE ISSUED AT 131545Z

超过4000个机场的气象观测和天气预报(METAR&TAF报告)。

可查询的气象台以黄色和红色小点在地图上表示。

将鼠标移到小点上方,可查看气象台名称。

然后点击查看天气观测和预报。

如需切换地图:点击带黑十字的绿色按钮放大地图;点击带横线的绿色按钮缩小地图;或者点击绿色箭头查看邻近地区的地图。


METAR-TAF: